UNBB 171600Z 18003MPS CAVOK 23/02 Q1008 R24/CLRD66 NOSIG RMK QFE734
QNH:(hPa/inHg/mmHg)1008 / 29.77 / 756
QFE:(hPa/inHg/mmHg)977 / 28.85 / 733
Temperature23
Dew Point2
Visibility> 10000
WeatherCAVOK
Cloud Cover
Transition Height700 m./3200 ft.
Transition LevelFL50
SQUAWK